Airfield :
LOGIN :

Register | Disclaimer

   EN    FR    IT 

 










Legend :    VFR   Marginal VFR   IFR   Intensive IFR   Very Intensive IFR
Visi :
Ceiling :
>= 8 km
>= 3000ft
5 to 8 km
1000 to 3000 ft
1500m to 5 km
500 to 1000 ft
800 to 1500m
200 to 500 ft
< 800m
< 200 ft
Symbols :   Thunderstorms  Fog  Heavy snow  Heavy precipitations  Wind > 20 kt
SIGMETs :     Misc.  Thunderstorms  Icing  Turbulence  Mountain Waves  Volcanic Ashes






- Airport Elevation : 13 ft
- IATA code : OST


EBOS - Oostend bruges Int.

CURRENT METAR :
  • 152020Z 17008KT 9999 FEW025 05/02 Q1004 NOSIG

EXPIRED METARs :
  • 151950Z 17008KT 9999 FEW025 05/02 Q1004 NOSIG
  • 151920Z 18009KT 9999 FEW025 05/03 Q1004 NOSIG
  • 151850Z 18010KT 9999 FEW025 05/03 Q1003 NOSIG
  • 151820Z 18010KT 9999 FEW025 06/03 Q1003 NOSIG
  • 151750Z 19011KT 9999 FEW018 SCT040 06/03 Q1003 NOSIG

TAF TAF EBOS
Valid from the 15 at 18:00 until the 17 at 00:00 UTC


151710Z 1518/1624 18013KT 9999 FEW020
BECMG 1618/1620 BKN011
BECMG 1620/1623 10007KT
PROB40
TEMPO 1620/1624 4000 RA RADZ BKN007



MET'MAP, your aeronautical weather chart ! - Copyright ORBIFLY December 2007 - Disclaimer

ORBIFLY MET'MAP TEAM :

Programming & Development : Alexandra Zaïnal
Concept & original design : Baudouin d'Aumeries
Assistance for programming : Marc-Olivier Méhu
Technical & hardware support : Manuel Goepfert

Contact : metmap@orbifly.com




SOURCES & CREDITS :

   NOAA